sensor_id;sensor_type;location;lat;lon;timestamp;P1;durP1;ratioP1;P2;durP2;ratioP2
49722;SDS011;43484;43.608;1.458;2023-06-04T00:00:21;4.70;;;2.65;;
49722;SDS011;43484;43.608;1.458;2023-06-04T00:02:48;6.13;;;2.92;;
49722;SDS011;43484;43.608;1.458;2023-06-04T00:05:14;3.20;;;2.65;;
49722;SDS011;43484;43.608;1.458;2023-06-04T00:07:41;5.22;;;2.97;;
49722;SDS011;43484;43.608;1.458;2023-06-04T00:10:08;3.35;;;2.63;;
49722;SDS011;43484;43.608;1.458;2023-06-04T00:12:35;9.25;;;3.08;;
49722;SDS011;43484;43.608;1.458;2023-06-04T00:15:02;9.25;;;2.95;;
49722;SDS011;43484;43.608;1.458;2023-06-04T00:17:29;3.83;;;2.80;;
49722;SDS011;43484;43.608;1.458;2023-06-04T00:19:56;7.50;;;2.90;;
49722;SDS011;43484;43.608;1.458;2023-06-04T00:22:23;7.50;;;3.05;;
49722;SDS011;43484;43.608;1.458;2023-06-04T00:24:50;9.20;;;3.17;;
49722;SDS011;43484;43.608;1.458;2023-06-04T00:27:17;5.95;;;3.40;;
49722;SDS011;43484;43.608;1.458;2023-06-04T00:29:44;7.75;;;3.20;;
49722;SDS011;43484;43.608;1.458;2023-06-04T00:32:10;5.72;;;3.13;;
49722;SDS011;43484;43.608;1.458;2023-06-04T00:34:37;6.38;;;2.75;;
49722;SDS011;43484;43.608;1.458;2023-06-04T00:37:04;6.45;;;3.08;;
49722;SDS011;43484;43.608;1.458;2023-06-04T00:39:31;6.50;;;3.92;;
49722;SDS011;43484;43.608;1.458;2023-06-04T00:41:58;7.95;;;3.30;;
49722;SDS011;43484;43.608;1.458;2023-06-04T00:44:25;5.65;;;3.13;;
49722;SDS011;43484;43.608;1.458;2023-06-04T00:46:52;5.30;;;3.05;;
49722;SDS011;43484;43.608;1.458;2023-06-04T00:49:22;7.20;;;3.47;;
49722;SDS011;43484;43.608;1.458;2023-06-04T00:51:48;9.73;;;3.40;;
49722;SDS011;43484;43.608;1.458;2023-06-04T00:54:16;8.80;;;3.53;;
49722;SDS011;43484;43.608;1.458;2023-06-04T00:56:44;5.88;;;2.72;;
49722;SDS011;43484;43.608;1.458;2023-06-04T00:59:10;6.22;;;3.15;;
49722;SDS011;43484;43.608;1.458;2023-06-04T01:04:29;8.93;;;3.72;;
49722;SDS011;43484;43.608;1.458;2023-06-04T01:07:03;6.78;;;3.20;;
49722;SDS011;43484;43.608;1.458;2023-06-04T01:09:30;6.50;;;3.40;;
49722;SDS011;43484;43.608;1.458;2023-06-04T01:11:57;6.88;;;3.40;;
49722;SDS011;43484;43.608;1.458;2023-06-04T01:14:25;8.13;;;3.53;;
49722;SDS011;43484;43.608;1.458;2023-06-04T01:16:56;6.47;;;4.28;;
49722;SDS011;43484;43.608;1.458;2023-06-04T01:22:22;5.93;;;3.17;;
49722;SDS011;43484;43.608;1.458;2023-06-04T01:25:05;8.48;;;3.38;;
49722;SDS011;43484;43.608;1.458;2023-06-04T01:27:47;8.85;;;3.33;;
49722;SDS011;43484;43.608;1.458;2023-06-04T01:30:16;6.13;;;3.00;;
49722;SDS011;43484;43.608;1.458;2023-06-04T01:32:44;6.57;;;3.90;;
49722;SDS011;43484;43.608;1.458;2023-06-04T01:35:12;7.13;;;3.75;;
49722;SDS011;43484;43.608;1.458;2023-06-04T01:37:39;4.63;;;3.33;;
49722;SDS011;43484;43.608;1.458;2023-06-04T01:40:07;10.27;;;3.38;;
49722;SDS011;43484;43.608;1.458;2023-06-04T01:42:37;8.40;;;4.00;;
49722;SDS011;43484;43.608;1.458;2023-06-04T01:45:04;7.57;;;4.22;;
49722;SDS011;43484;43.608;1.458;2023-06-04T01:47:31;10.68;;;3.88;;
49722;SDS011;43484;43.608;1.458;2023-06-04T01:49:58;6.10;;;3.03;;
49722;SDS011;43484;43.608;1.458;2023-06-04T01:52:24;4.75;;;3.38;;
49722;SDS011;43484;43.608;1.458;2023-06-04T01:54:51;6.65;;;3.80;;
49722;SDS011;43484;43.608;1.458;2023-06-04T01:57:19;6.88;;;3.60;;
49722;SDS011;43484;43.608;1.458;2023-06-04T01:59:46;7.15;;;3.60;;
49722;SDS011;43484;43.608;1.458;2023-06-04T02:02:13;7.80;;;3.70;;
49722;SDS011;43484;43.608;1.458;2023-06-04T02:04:41;9.63;;;3.33;;
49722;SDS011;43484;43.608;1.458;2023-06-04T02:07:09;9.55;;;3.38;;
49722;SDS011;43484;43.608;1.458;2023-06-04T02:09:36;6.90;;;3.70;;
49722;SDS011;43484;43.608;1.458;2023-06-04T02:12:03;7.45;;;3.58;;
49722;SDS011;43484;43.608;1.458;2023-06-04T02:14:30;7.40;;;3.72;;
49722;SDS011;43484;43.608;1.458;2023-06-04T02:16:57;5.70;;;3.08;;
49722;SDS011;43484;43.608;1.458;2023-06-04T02:19:24;8.82;;;3.78;;
49722;SDS011;43484;43.608;1.458;2023-06-04T02:21:54;7.45;;;3.28;;
49722;SDS011;43484;43.608;1.458;2023-06-04T02:24:21;10.20;;;3.60;;
49722;SDS011;43484;43.608;1.458;2023-06-04T02:26:48;5.70;;;3.45;;
49722;SDS011;43484;43.608;1.458;2023-06-04T02:29:15;7.07;;;3.25;;
49722;SDS011;43484;43.608;1.458;2023-06-04T02:31:41;5.32;;;3.25;;
49722;SDS011;43484;43.608;1.458;2023-06-04T02:34:09;6.95;;;3.67;;
49722;SDS011;43484;43.608;1.458;2023-06-04T02:36:35;7.32;;;3.22;;
49722;SDS011;43484;43.608;1.458;2023-06-04T02:39:02;6.03;;;3.25;;
49722;SDS011;43484;43.608;1.458;2023-06-04T02:41:29;9.10;;;3.55;;
49722;SDS011;43484;43.608;1.458;2023-06-04T02:43:56;6.55;;;3.13;;
49722;SDS011;43484;43.608;1.458;2023-06-04T02:46:22;7.80;;;3.40;;
49722;SDS011;43484;43.608;1.458;2023-06-04T02:48:49;7.65;;;3.30;;
49722;SDS011;43484;43.608;1.458;2023-06-04T02:51:16;4.70;;;3.20;;
49722;SDS011;43484;43.608;1.458;2023-06-04T02:53:43;6.32;;;3.47;;
49722;SDS011;43484;43.608;1.458;2023-06-04T02:56:11;5.38;;;3.30;;
49722;SDS011;43484;43.608;1.458;2023-06-04T02:58:48;6.50;;;3.08;;
49722;SDS011;43484;43.608;1.458;2023-06-04T03:01:18;7.70;;;3.45;;
49722;SDS011;43484;43.608;1.458;2023-06-04T03:03:46;5.90;;;3.45;;
49722;SDS011;43484;43.608;1.458;2023-06-04T03:06:14;7.20;;;3.50;;
49722;SDS011;43484;43.608;1.458;2023-06-04T03:08:42;3.72;;;3.00;;
49722;SDS011;43484;43.608;1.458;2023-06-04T03:11:09;7.22;;;3.25;;
49722;SDS011;43484;43.608;1.458;2023-06-04T03:13:36;4.32;;;3.50;;
49722;SDS011;43484;43.608;1.458;2023-06-04T03:16:03;8.45;;;3.05;;
49722;SDS011;43484;43.608;1.458;2023-06-04T03:18:30;4.53;;;3.70;;
49722;SDS011;43484;43.608;1.458;2023-06-04T03:20:57;10.98;;;3.22;;
49722;SDS011;43484;43.608;1.458;2023-06-04T03:23:23;4.88;;;3.28;;
49722;SDS011;43484;43.608;1.458;2023-06-04T03:25:50;6.60;;;3.97;;
49722;SDS011;43484;43.608;1.458;2023-06-04T03:28:17;4.32;;;3.20;;
49722;SDS011;43484;43.608;1.458;2023-06-04T03:30:43;5.28;;;3.00;;
49722;SDS011;43484;43.608;1.458;2023-06-04T03:33:10;6.43;;;3.20;;
49722;SDS011;43484;43.608;1.458;2023-06-04T03:35:37;4.68;;;3.47;;
49722;SDS011;43484;43.608;1.458;2023-06-04T03:38:03;9.80;;;3.20;;
49722;SDS011;43484;43.608;1.458;2023-06-04T03:40:30;6.75;;;2.97;;
49722;SDS011;43484;43.608;1.458;2023-06-04T03:42:57;8.15;;;4.10;;
49722;SDS011;43484;43.608;1.458;2023-06-04T03:45:23;5.07;;;3.08;;
49722;SDS011;43484;43.608;1.458;2023-06-04T03:47:50;6.28;;;3.03;;
49722;SDS011;43484;43.608;1.458;2023-06-04T03:50:17;3.95;;;2.90;;
49722;SDS011;43484;43.608;1.458;2023-06-04T03:52:45;6.57;;;3.20;;
49722;SDS011;43484;43.608;1.458;2023-06-04T03:55:11;7.20;;;3.45;;
49722;SDS011;43484;43.608;1.458;2023-06-04T03:57:38;6.03;;;3.88;;
49722;SDS011;43484;43.608;1.458;2023-06-04T04:00:05;4.65;;;3.42;;
49722;SDS011;43484;43.608;1.458;2023-06-04T04:02:34;10.05;;;3.45;;
49722;SDS011;43484;43.608;1.458;2023-06-04T04:05:01;5.93;;;3.17;;
49722;SDS011;43484;43.608;1.458;2023-06-04T04:07:29;9.60;;;4.43;;
49722;SDS011;43484;43.608;1.458;2023-06-04T04:09:56;5.15;;;3.70;;
49722;SDS011;43484;43.608;1.458;2023-06-04T04:12:22;8.65;;;4.35;;
49722;SDS011;43484;43.608;1.458;2023-06-04T04:14:49;8.23;;;4.10;;
49722;SDS011;43484;43.608;1.458;2023-06-04T04:17:16;5.97;;;3.40;;
49722;SDS011;43484;43.608;1.458;2023-06-04T04:19:43;9.15;;;3.85;;
49722;SDS011;43484;43.608;1.458;2023-06-04T04:22:10;10.02;;;4.20;;
49722;SDS011;43484;43.608;1.458;2023-06-04T04:24:37;8.13;;;3.90;;
49722;SDS011;43484;43.608;1.458;2023-06-04T04:27:04;6.45;;;3.17;;
49722;SDS011;43484;43.608;1.458;2023-06-04T04:29:31;4.85;;;3.53;;
49722;SDS011;43484;43.608;1.458;2023-06-04T04:32:01;4.10;;;3.22;;
49722;SDS011;43484;43.608;1.458;2023-06-04T04:34:38;6.80;;;3.53;;
49722;SDS011;43484;43.608;1.458;2023-06-04T04:37:17;9.43;;;3.67;;
49722;SDS011;43484;43.608;1.458;2023-06-04T04:39:47;6.07;;;3.63;;
49722;SDS011;43484;43.608;1.458;2023-06-04T04:42:18;6.70;;;3.75;;
49722;SDS011;43484;43.608;1.458;2023-06-04T04:44:45;5.13;;;3.30;;
49722;SDS011;43484;43.608;1.458;2023-06-04T04:47:15;6.35;;;3.53;;
49722;SDS011;43484;43.608;1.458;2023-06-04T04:49:42;7.00;;;3.67;;
49722;SDS011;43484;43.608;1.458;2023-06-04T04:52:08;6.78;;;3.17;;
49722;SDS011;43484;43.608;1.458;2023-06-04T04:54:35;4.43;;;3.42;;
49722;SDS011;43484;43.608;1.458;2023-06-04T04:57:02;6.03;;;3.30;;
49722;SDS011;43484;43.608;1.458;2023-06-04T04:59:39;10.35;;;7.20;;
49722;SDS011;43484;43.608;1.458;2023-06-04T05:02:06;9.63;;;3.67;;
49722;SDS011;43484;43.608;1.458;2023-06-04T05:04:32;7.90;;;4.80;;
49722;SDS011;43484;43.608;1.458;2023-06-04T05:06:59;3.85;;;3.50;;
49722;SDS011;43484;43.608;1.458;2023-06-04T05:09:26;5.95;;;3.42;;
49722;SDS011;43484;43.608;1.458;2023-06-04T05:11:53;13.80;;;7.30;;
49722;SDS011;43484;43.608;1.458;2023-06-04T05:14:19;10.07;;;6.72;;
49722;SDS011;43484;43.608;1.458;2023-06-04T05:16:46;8.38;;;3.67;;
49722;SDS011;43484;43.608;1.458;2023-06-04T05:19:17;8.07;;;5.15;;
49722;SDS011;43484;43.608;1.458;2023-06-04T05:21:44;7.65;;;3.92;;
49722;SDS011;43484;43.608;1.458;2023-06-04T05:24:11;7.28;;;4.70;;
49722;SDS011;43484;43.608;1.458;2023-06-04T05:26:37;5.88;;;5.00;;
49722;SDS011;43484;43.608;1.458;2023-06-04T05:29:06;6.78;;;3.80;;
49722;SDS011;43484;43.608;1.458;2023-06-04T05:31:33;5.90;;;4.57;;
49722;SDS011;43484;43.608;1.458;2023-06-04T05:34:01;9.80;;;4.55;;
49722;SDS011;43484;43.608;1.458;2023-06-04T05:36:31;9.95;;;5.43;;
49722;SDS011;43484;43.608;1.458;2023-06-04T05:38:58;11.93;;;5.18;;
49722;SDS011;43484;43.608;1.458;2023-06-04T05:41:26;9.75;;;5.38;;
49722;SDS011;43484;43.608;1.458;2023-06-04T05:43:54;4.13;;;3.28;;
49722;SDS011;43484;43.608;1.458;2023-06-04T05:46:21;9.32;;;5.22;;
49722;SDS011;43484;43.608;1.458;2023-06-04T05:48:48;11.20;;;5.78;;
49722;SDS011;43484;43.608;1.458;2023-06-04T05:51:15;10.60;;;3.75;;
49722;SDS011;43484;43.608;1.458;2023-06-04T05:53:42;6.55;;;3.95;;
49722;SDS011;43484;43.608;1.458;2023-06-04T05:56:08;8.57;;;4.15;;
49722;SDS011;43484;43.608;1.458;2023-06-04T05:58:35;9.00;;;6.32;;
49722;SDS011;43484;43.608;1.458;2023-06-04T06:01:02;8.93;;;5.95;;
49722;SDS011;43484;43.608;1.458;2023-06-04T06:03:29;11.70;;;8.45;;
49722;SDS011;43484;43.608;1.458;2023-06-04T06:05:56;11.90;;;6.05;;
49722;SDS011;43484;43.608;1.458;2023-06-04T06:08:26;11.07;;;5.90;;
49722;SDS011;43484;43.608;1.458;2023-06-04T06:10:53;9.88;;;5.10;;
49722;SDS011;43484;43.608;1.458;2023-06-04T06:13:19;9.75;;;4.25;;
49722;SDS011;43484;43.608;1.458;2023-06-04T06:15:46;11.40;;;4.10;;
49722;SDS011;43484;43.608;1.458;2023-06-04T06:18:14;9.80;;;4.50;;
49722;SDS011;43484;43.608;1.458;2023-06-04T06:20:41;11.15;;;7.07;;
49722;SDS011;43484;43.608;1.458;2023-06-04T06:23:08;17.83;;;8.80;;
49722;SDS011;43484;43.608;1.458;2023-06-04T06:25:35;13.25;;;8.73;;
49722;SDS011;43484;43.608;1.458;2023-06-04T06:28:02;7.97;;;4.15;;
49722;SDS011;43484;43.608;1.458;2023-06-04T06:30:29;8.80;;;4.07;;
49722;SDS011;43484;43.608;1.458;2023-06-04T06:32:56;6.53;;;3.63;;
49722;SDS011;43484;43.608;1.458;2023-06-04T06:35:23;5.72;;;3.35;;
49722;SDS011;43484;43.608;1.458;2023-06-04T06:37:49;6.97;;;3.83;;
49722;SDS011;43484;43.608;1.458;2023-06-04T06:40:16;6.80;;;3.47;;
49722;SDS011;43484;43.608;1.458;2023-06-04T06:42:47;7.22;;;3.83;;
49722;SDS011;43484;43.608;1.458;2023-06-04T06:45:15;4.22;;;3.55;;
49722;SDS011;43484;43.608;1.458;2023-06-04T06:47:42;8.18;;;4.35;;
49722;SDS011;43484;43.608;1.458;2023-06-04T06:50:08;4.35;;;3.63;;
49722;SDS011;43484;43.608;1.458;2023-06-04T06:52:37;8.23;;;4.10;;
49722;SDS011;43484;43.608;1.458;2023-06-04T06:55:04;9.13;;;3.63;;
49722;SDS011;43484;43.608;1.458;2023-06-04T06:57:32;8.25;;;4.80;;
49722;SDS011;43484;43.608;1.458;2023-06-04T06:59:59;11.10;;;5.63;;
49722;SDS011;43484;43.608;1.458;2023-06-04T07:02:26;9.73;;;5.18;;
49722;SDS011;43484;43.608;1.458;2023-06-04T07:04:54;5.80;;;3.42;;
49722;SDS011;43484;43.608;1.458;2023-06-04T07:07:20;11.80;;;6.47;;
49722;SDS011;43484;43.608;1.458;2023-06-04T07:09:48;5.75;;;3.85;;
49722;SDS011;43484;43.608;1.458;2023-06-04T07:12:15;5.72;;;2.95;;
49722;SDS011;43484;43.608;1.458;2023-06-04T07:14:42;4.78;;;3.63;;
49722;SDS011;43484;43.608;1.458;2023-06-04T07:17:08;7.38;;;3.28;;
49722;SDS011;43484;43.608;1.458;2023-06-04T07:19:35;7.70;;;3.28;;
49722;SDS011;43484;43.608;1.458;2023-06-04T07:22:01;6.90;;;3.10;;
49722;SDS011;43484;43.608;1.458;2023-06-04T07:24:28;4.82;;;4.35;;
49722;SDS011;43484;43.608;1.458;2023-06-04T07:26:55;8.70;;;4.18;;
49722;SDS011;43484;43.608;1.458;2023-06-04T07:29:22;7.75;;;3.10;;
49722;SDS011;43484;43.608;1.458;2023-06-04T07:31:49;3.97;;;3.58;;
49722;SDS011;43484;43.608;1.458;2023-06-04T07:34:15;5.80;;;3.28;;
49722;SDS011;43484;43.608;1.458;2023-06-04T07:36:42;9.45;;;4.15;;
49722;SDS011;43484;43.608;1.458;2023-06-04T07:39:09;7.55;;;3.00;;
49722;SDS011;43484;43.608;1.458;2023-06-04T07:41:35;7.15;;;4.20;;
49722;SDS011;43484;43.608;1.458;2023-06-04T07:44:02;5.55;;;3.35;;
49722;SDS011;43484;43.608;1.458;2023-06-04T07:46:29;6.30;;;3.38;;
49722;SDS011;43484;43.608;1.458;2023-06-04T07:48:55;5.68;;;3.60;;
49722;SDS011;43484;43.608;1.458;2023-06-04T07:51:22;6.35;;;4.32;;
49722;SDS011;43484;43.608;1.458;2023-06-04T07:53:49;5.50;;;3.90;;
49722;SDS011;43484;43.608;1.458;2023-06-04T07:56:16;5.97;;;3.60;;
49722;SDS011;43484;43.608;1.458;2023-06-04T07:58:43;5.20;;;3.80;;
49722;SDS011;43484;43.608;1.458;2023-06-04T08:01:10;4.80;;;2.90;;
49722;SDS011;43484;43.608;1.458;2023-06-04T08:03:37;9.52;;;3.30;;
49722;SDS011;43484;43.608;1.458;2023-06-04T08:06:03;8.82;;;3.83;;
49722;SDS011;43484;43.608;1.458;2023-06-04T08:08:30;3.90;;;2.60;;
49722;SDS011;43484;43.608;1.458;2023-06-04T08:11:00;4.22;;;3.10;;
49722;SDS011;43484;43.608;1.458;2023-06-04T08:13:26;5.97;;;2.70;;
49722;SDS011;43484;43.608;1.458;2023-06-04T08:15:53;4.35;;;3.25;;
49722;SDS011;43484;43.608;1.458;2023-06-04T08:18:20;9.75;;;3.30;;
49722;SDS011;43484;43.608;1.458;2023-06-04T08:20:46;3.90;;;2.55;;
49722;SDS011;43484;43.608;1.458;2023-06-04T08:23:13;4.63;;;2.78;;
49722;SDS011;43484;43.608;1.458;2023-06-04T08:25:40;7.60;;;2.53;;
49722;SDS011;43484;43.608;1.458;2023-06-04T08:28:07;6.15;;;3.05;;
49722;SDS011;43484;43.608;1.458;2023-06-04T08:30:35;6.07;;;3.22;;
49722;SDS011;43484;43.608;1.458;2023-06-04T08:33:02;5.97;;;2.42;;
49722;SDS011;43484;43.608;1.458;2023-06-04T08:35:29;4.15;;;2.63;;
49722;SDS011;43484;43.608;1.458;2023-06-04T08:37:56;6.10;;;2.58;;
49722;SDS011;43484;43.608;1.458;2023-06-04T08:40:22;8.80;;;2.60;;
49722;SDS011;43484;43.608;1.458;2023-06-04T08:42:49;7.40;;;2.65;;
49722;SDS011;43484;43.608;1.458;2023-06-04T08:45:17;7.65;;;2.78;;
49722;SDS011;43484;43.608;1.458;2023-06-04T08:47:50;12.55;;;3.28;;
49722;SDS011;43484;43.608;1.458;2023-06-04T08:50:18;7.60;;;2.58;;
49722;SDS011;43484;43.608;1.458;2023-06-04T08:52:46;5.55;;;2.47;;
49722;SDS011;43484;43.608;1.458;2023-06-04T08:55:14;9.52;;;3.13;;
49722;SDS011;43484;43.608;1.458;2023-06-04T08:57:41;8.15;;;2.47;;
49722;SDS011;43484;43.608;1.458;2023-06-04T09:00:08;3.63;;;2.35;;
49722;SDS011;43484;43.608;1.458;2023-06-04T09:02:38;2.90;;;2.55;;
49722;SDS011;43484;43.608;1.458;2023-06-04T09:05:05;4.70;;;2.78;;
49722;SDS011;43484;43.608;1.458;2023-06-04T09:07:36;5.07;;;3.00;;
49722;SDS011;43484;43.608;1.458;2023-06-04T09:10:06;4.78;;;2.70;;
49722;SDS011;43484;43.608;1.458;2023-06-04T09:12:41;5.82;;;3.30;;
49722;SDS011;43484;43.608;1.458;2023-06-04T09:15:10;8.73;;;2.72;;
49722;SDS011;43484;43.608;1.458;2023-06-04T09:17:37;4.20;;;2.55;;
49722;SDS011;43484;43.608;1.458;2023-06-04T09:20:04;3.40;;;2.47;;
49722;SDS011;43484;43.608;1.458;2023-06-04T09:22:35;5.80;;;2.80;;
49722;SDS011;43484;43.608;1.458;2023-06-04T09:25:03;7.00;;;2.08;;
49722;SDS011;43484;43.608;1.458;2023-06-04T09:27:39;4.03;;;2.90;;
49722;SDS011;43484;43.608;1.458;2023-06-04T09:30:06;4.03;;;2.90;;
49722;SDS011;43484;43.608;1.458;2023-06-04T09:32:37;3.30;;;2.47;;
49722;SDS011;43484;43.608;1.458;2023-06-04T09:37:37;2.93;;;2.20;;
49722;SDS011;43484;43.608;1.458;2023-06-04T09:40:05;5.68;;;2.50;;
49722;SDS011;43484;43.608;1.458;2023-06-04T09:42:46;5.88;;;2.67;;
49722;SDS011;43484;43.608;1.458;2023-06-04T09:45:31;5.43;;;2.80;;
49722;SDS011;43484;43.608;1.458;2023-06-04T09:47:59;4.35;;;2.47;;
49722;SDS011;43484;43.608;1.458;2023-06-04T09:50:27;4.90;;;2.20;;
49722;SDS011;43484;43.608;1.458;2023-06-04T09:52:57;5.65;;;2.00;;
49722;SDS011;43484;43.608;1.458;2023-06-04T09:55:23;5.07;;;2.35;;
49722;SDS011;43484;43.608;1.458;2023-06-04T09:57:52;4.35;;;2.10;;
49722;SDS011;43484;43.608;1.458;2023-06-04T10:00:20;4.30;;;2.03;;
49722;SDS011;43484;43.608;1.458;2023-06-04T10:02:49;5.40;;;2.35;;
49722;SDS011;43484;43.608;1.458;2023-06-04T10:05:21;9.05;;;2.42;;
49722;SDS011;43484;43.608;1.458;2023-06-04T10:07:50;3.13;;;2.10;;
49722;SDS011;43484;43.608;1.458;2023-06-04T10:10:19;4.22;;;2.00;;
49722;SDS011;43484;43.608;1.458;2023-06-04T10:12:50;3.38;;;1.83;;
49722;SDS011;43484;43.608;1.458;2023-06-04T10:15:21;4.15;;;1.70;;
49722;SDS011;43484;43.608;1.458;2023-06-04T10:17:47;3.33;;;2.03;;
49722;SDS011;43484;43.608;1.458;2023-06-04T10:20:15;4.38;;;2.10;;
49722;SDS011;43484;43.608;1.458;2023-06-04T10:22:43;3.58;;;1.88;;
49722;SDS011;43484;43.608;1.458;2023-06-04T10:25:10;3.42;;;1.73;;
49722;SDS011;43484;43.608;1.458;2023-06-04T10:27:37;7.72;;;2.10;;
49722;SDS011;43484;43.608;1.458;2023-06-04T10:30:04;6.53;;;2.70;;
49722;SDS011;43484;43.608;1.458;2023-06-04T10:32:31;4.13;;;1.88;;
49722;SDS011;43484;43.608;1.458;2023-06-04T10:34:58;3.03;;;1.67;;
49722;SDS011;43484;43.608;1.458;2023-06-04T10:37:25;4.10;;;1.63;;
49722;SDS011;43484;43.608;1.458;2023-06-04T10:39:53;3.80;;;2.88;;
49722;SDS011;43484;43.608;1.458;2023-06-04T10:42:22;4.72;;;1.98;;
49722;SDS011;43484;43.608;1.458;2023-06-04T10:44:53;2.33;;;1.65;;
49722;SDS011;43484;43.608;1.458;2023-06-04T10:47:26;3.72;;;1.35;;
49722;SDS011;43484;43.608;1.458;2023-06-04T10:50:07;3.10;;;1.80;;
49722;SDS011;43484;43.608;1.458;2023-06-04T10:52:37;4.13;;;1.20;;
49722;SDS011;43484;43.608;1.458;2023-06-04T10:55:06;4.68;;;1.70;;
49722;SDS011;43484;43.608;1.458;2023-06-04T10:57:34;2.45;;;1.90;;
49722;SDS011;43484;43.608;1.458;2023-06-04T11:00:01;2.95;;;1.60;;
49722;SDS011;43484;43.608;1.458;2023-06-04T11:02:32;3.33;;;1.20;;
49722;SDS011;43484;43.608;1.458;2023-06-04T11:04:59;3.17;;;1.77;;
49722;SDS011;43484;43.608;1.458;2023-06-04T11:07:42;5.22;;;1.48;;
49722;SDS011;43484;43.608;1.458;2023-06-04T11:10:14;3.13;;;1.38;;
49722;SDS011;43484;43.608;1.458;2023-06-04T11:12:45;2.30;;;1.45;;
49722;SDS011;43484;43.608;1.458;2023-06-04T11:15:14;5.40;;;1.38;;
49722;SDS011;43484;43.608;1.458;2023-06-04T11:17:50;5.20;;;1.17;;
49722;SDS011;43484;43.608;1.458;2023-06-04T11:20:21;2.35;;;1.20;;
49722;SDS011;43484;43.608;1.458;2023-06-04T11:22:55;2.28;;;1.30;;
49722;SDS011;43484;43.608;1.458;2023-06-04T11:25:26;4.72;;;1.50;;
49722;SDS011;43484;43.608;1.458;2023-06-04T11:27:55;4.65;;;1.63;;
49722;SDS011;43484;43.608;1.458;2023-06-04T11:30:23;6.13;;;1.38;;
49722;SDS011;43484;43.608;1.458;2023-06-04T11:32:50;4.70;;;1.60;;
49722;SDS011;43484;43.608;1.458;2023-06-04T11:35:27;1.95;;;0.98;;
49722;SDS011;43484;43.608;1.458;2023-06-04T11:37:54;3.28;;;1.20;;
49722;SDS011;43484;43.608;1.458;2023-06-04T11:40:21;6.43;;;2.60;;
49722;SDS011;43484;43.608;1.458;2023-06-04T11:42:48;2.70;;;1.55;;
49722;SDS011;43484;43.608;1.458;2023-06-04T11:45:16;1.75;;;1.40;;
49722;SDS011;43484;43.608;1.458;2023-06-04T11:47:48;2.17;;;1.30;;
49722;SDS011;43484;43.608;1.458;2023-06-04T11:50:17;1.88;;;1.20;;
49722;SDS011;43484;43.608;1.458;2023-06-04T11:52:44;3.45;;;1.67;;
49722;SDS011;43484;43.608;1.458;2023-06-04T11:55:12;2.83;;;1.75;;
49722;SDS011;43484;43.608;1.458;2023-06-04T11:57:39;4.32;;;1.88;;
49722;SDS011;43484;43.608;1.458;2023-06-04T12:00:07;5.13;;;1.55;;
49722;SDS011;43484;43.608;1.458;2023-06-04T12:02:37;3.17;;;1.60;;
49722;SDS011;43484;43.608;1.458;2023-06-04T12:05:15;1.88;;;1.42;;
49722;SDS011;43484;43.608;1.458;2023-06-04T12:07:46;3.63;;;1.63;;
49722;SDS011;43484;43.608;1.458;2023-06-04T12:10:22;4.28;;;1.75;;
49722;SDS011;43484;43.608;1.458;2023-06-04T12:12:53;2.53;;;1.25;;
49722;SDS011;43484;43.608;1.458;2023-06-04T12:15:23;2.38;;;1.60;;
49722;SDS011;43484;43.608;1.458;2023-06-04T12:17:50;3.50;;;1.33;;
49722;SDS011;43484;43.608;1.458;2023-06-04T12:20:31;2.55;;;1.20;;
49722;SDS011;43484;43.608;1.458;2023-06-04T12:23:03;1.70;;;1.55;;
49722;SDS011;43484;43.608;1.458;2023-06-04T12:25:31;1.55;;;1.27;;
49722;SDS011;43484;43.608;1.458;2023-06-04T12:27:58;3.00;;;1.10;;
49722;SDS011;43484;43.608;1.458;2023-06-04T12:30:35;2.50;;;1.20;;
49722;SDS011;43484;43.608;1.458;2023-06-04T12:33:05;6.40;;;1.25;;
49722;SDS011;43484;43.608;1.458;2023-06-04T12:35:32;3.75;;;1.20;;
49722;SDS011;43484;43.608;1.458;2023-06-04T12:38:01;1.75;;;1.23;;
49722;SDS011;43484;43.608;1.458;2023-06-04T12:40:29;2.00;;;1.42;;
49722;SDS011;43484;43.608;1.458;2023-06-04T12:42:56;4.07;;;1.08;;
49722;SDS011;43484;43.608;1.458;2023-06-04T12:45:22;1.00;;;0.90;;
49722;SDS011;43484;43.608;1.458;2023-06-04T12:47:49;3.47;;;1.30;;
49722;SDS011;43484;43.608;1.458;2023-06-04T12:50:16;2.42;;;1.15;;
49722;SDS011;43484;43.608;1.458;2023-06-04T12:52:47;2.00;;;1.30;;
49722;SDS011;43484;43.608;1.458;2023-06-04T12:55:14;5.03;;;1.10;;
49722;SDS011;43484;43.608;1.458;2023-06-04T12:57:41;1.92;;;1.10;;
49722;SDS011;43484;43.608;1.458;2023-06-04T13:00:10;2.55;;;1.30;;
49722;SDS011;43484;43.608;1.458;2023-06-04T13:02:37;3.60;;;1.08;;
49722;SDS011;43484;43.608;1.458;2023-06-04T13:05:04;3.03;;;1.38;;
49722;SDS011;43484;43.608;1.458;2023-06-04T13:07:31;1.83;;;1.30;;
49722;SDS011;43484;43.608;1.458;2023-06-04T13:09:58;3.38;;;1.48;;
49722;SDS011;43484;43.608;1.458;2023-06-04T13:12:25;2.42;;;1.55;;
49722;SDS011;43484;43.608;1.458;2023-06-04T13:14:51;6.15;;;0.95;;
49722;SDS011;43484;43.608;1.458;2023-06-04T13:17:18;1.13;;;0.85;;
49722;SDS011;43484;43.608;1.458;2023-06-04T13:19:48;2.22;;;1.00;;
49722;SDS011;43484;43.608;1.458;2023-06-04T13:22:15;1.65;;;1.00;;
49722;SDS011;43484;43.608;1.458;2023-06-04T13:24:42;2.25;;;1.10;;
49722;SDS011;43484;43.608;1.458;2023-06-04T13:27:09;2.80;;;1.20;;
49722;SDS011;43484;43.608;1.458;2023-06-04T13:29:35;2.95;;;1.20;;
49722;SDS011;43484;43.608;1.458;2023-06-04T13:32:02;3.60;;;1.30;;
49722;SDS011;43484;43.608;1.458;2023-06-04T13:34:30;4.15;;;1.20;;
49722;SDS011;43484;43.608;1.458;2023-06-04T13:36:58;2.55;;;1.50;;
49722;SDS011;43484;43.608;1.458;2023-06-04T13:39:25;2.70;;;1.17;;
49722;SDS011;43484;43.608;1.458;2023-06-04T13:41:51;2.65;;;1.30;;
49722;SDS011;43484;43.608;1.458;2023-06-04T13:44:18;2.72;;;1.20;;
49722;SDS011;43484;43.608;1.458;2023-06-04T13:46:52;3.13;;;1.20;;
49722;SDS011;43484;43.608;1.458;2023-06-04T13:49:20;1.88;;;0.93;;
49722;SDS011;43484;43.608;1.458;2023-06-04T13:51:47;1.92;;;1.00;;
49722;SDS011;43484;43.608;1.458;2023-06-04T13:54:13;1.38;;;0.98;;
49722;SDS011;43484;43.608;1.458;2023-06-04T13:56:40;2.83;;;1.02;;
49722;SDS011;43484;43.608;1.458;2023-06-04T13:59:06;3.05;;;1.02;;
49722;SDS011;43484;43.608;1.458;2023-06-04T14:01:33;2.08;;;0.82;;
49722;SDS011;43484;43.608;1.458;2023-06-04T14:04:00;1.92;;;1.00;;
49722;SDS011;43484;43.608;1.458;2023-06-04T14:06:26;2.55;;;0.93;;
49722;SDS011;43484;43.608;1.458;2023-06-04T14:08:53;2.30;;;1.00;;
49722;SDS011;43484;43.608;1.458;2023-06-04T14:11:21;2.15;;;0.80;;
49722;SDS011;43484;43.608;1.458;2023-06-04T14:13:48;1.77;;;1.10;;
49722;SDS011;43484;43.608;1.458;2023-06-04T14:16:15;2.85;;;1.00;;
49722;SDS011;43484;43.608;1.458;2023-06-04T14:18:42;2.95;;;1.10;;
49722;SDS011;43484;43.608;1.458;2023-06-04T14:21:08;1.67;;;0.88;;
49722;SDS011;43484;43.608;1.458;2023-06-04T14:23:35;1.38;;;0.70;;
49722;SDS011;43484;43.608;1.458;2023-06-04T14:26:02;1.95;;;1.10;;
49722;SDS011;43484;43.608;1.458;2023-06-04T14:28:29;2.65;;;1.00;;
49722;SDS011;43484;43.608;1.458;2023-06-04T14:30:56;1.98;;;1.20;;
49722;SDS011;43484;43.608;1.458;2023-06-04T14:33:24;3.20;;;1.05;;
49722;SDS011;43484;43.608;1.458;2023-06-04T14:35:51;0.75;;;0.75;;
49722;SDS011;43484;43.608;1.458;2023-06-04T14:38:18;3.03;;;0.85;;
49722;SDS011;43484;43.608;1.458;2023-06-04T14:40:45;2.15;;;0.88;;
49722;SDS011;43484;43.608;1.458;2023-06-04T14:43:12;1.05;;;0.80;;
49722;SDS011;43484;43.608;1.458;2023-06-04T14:45:39;13.68;;;1.92;;
49722;SDS011;43484;43.608;1.458;2023-06-04T14:48:07;3.13;;;1.00;;
49722;SDS011;43484;43.608;1.458;2023-06-04T14:50:38;2.38;;;0.95;;
49722;SDS011;43484;43.608;1.458;2023-06-04T14:53:04;2.75;;;1.10;;
49722;SDS011;43484;43.608;1.458;2023-06-04T14:55:34;3.30;;;0.98;;
49722;SDS011;43484;43.608;1.458;2023-06-04T14:58:00;1.58;;;1.00;;
49722;SDS011;43484;43.608;1.458;2023-06-04T15:00:29;4.28;;;1.20;;